Terminal Aerodrome Forecast
Issued by NWS Blacksburg, VA

Current Version | Previous Version | Text Only | Print | Product List | Glossary Off
Versions: 1 2 3 4 5 6 7 8 9 10 11 12 13 14 15 16 17 18 19 20 21 22 23 24 25 26 27 28 29 30 31 32 33 34 35 36 37 38 39

032
FTUS41 KRNK 121125
TAFBLF
TAF
KBLF 121125Z 1212/1312 VRB03KT P6SM OVC060
     FM121500 22005KT 4SM -SHSN BR OVC020
     FM122000 29010G20KT 4SM -SHSN BKN012
      TEMPO 1222/1302 2SM -SN OVC007
     FM130200 30016G35KT 3SM -SHSN BKN007
      TEMPO 1304/1308 1SM -SN=

USA.gov is the U.S. government's official web portal to all federal, state and local government web resources and services.